Jacksonville, FL (32230)

12:49 AM EDT on October 22, 2014 (GMT -0400)
Leeward Landing @ Neptune Beach | Change Station
CLOSE
Current Station
Personal Weather Station
Location: Neptune Beach, FL
Elevation: 14 ft
Nearby Weather Stations

Elev 14 ft 30.32 °N, 81.41 °W | Updated 6 seconds ago

Clear
Clear
66.6 °F
Feels Like 66.6 °F
N
0.0
Wind Variable Wind from WSW
Gusts 0.0 mph

Today
High -- | Low -- °F
--% Chance of Precip.
Yesterday
High -- | Low -- °F
Precip. -- in
7:32 AM 6:47 PM
Waning Crescent, 3% visible
Pressure 29.96 in
Visibility 10.0 miles
Clouds Few 25000 ft
Dew Point 64 °F
Humidity 93%
Rainfall 0.00 in
Snow Depth Not available.
UV 0 out of 12
Pollen 5.20 out of 12
Ozone Good
PM2.5 Moderate
Flu Activity Local Activity
METAR KNRB 220352Z 25003KT 10SM FEW250 21/19 A2996 RMK AO2 SLP145 T02110189

More Conditions Fewer Conditions

Pressure 29.96 in
Visibility 10.0 miles
Clouds Few 25000 ft
Dew Point 64 °F
Humidity 93%
Rainfall 0.00 in
Snow Depth Not available.
UV 0 out of 12
Pollen 5.20 out of 12
Ozone Good
PM2.5 Moderate
Flu Activity Local Activity
METAR KNRB 220352Z 25003KT 10SM FEW250 21/19 A2996 RMK AO2 SLP145 T02110189

More Conditions Fewer Conditions

10-Day Weather Forecast

Almanac

Astronomy

Oct. 22, 2014 Rise Set
Actual Time 7:32 AM EDT 6:47 PM EDT
Civil Twilight 7:08 AM EDT 7:11 PM EDT
Nautical Twilight 6:40 AM EDT 7:39 PM EDT
Astronomical Twilight 6:12 AM EDT 8:07 PM EDT
Moon 6:17 AM EDT 6:09 PM EDT
Length of Visible Light 12h 03m
Length of Day
11h 14m
Tomorrow will be 1m 42s shorter.
Waning Crescent, 3% of the Moon is Illuminated
Today
Waning Crescent
Oct 23
New
Oct 30
First Quarter
Nov 6
Full
Nov 14
Last Quarter

Today's Extremes

State Highs State Lows

Community

WunderPhotos

Upload Photos

1,763,882 photos uploaded!

Nearby

Air Quality

  Air Quality AQ Index Pollutant
Yesterday Good
OZONE
Yesterday Good
PM2.5
Current Moderate
PM2.5
Current Good
OZONE
Tuesday Good
OZONE
Tuesday Good
PM2.5
Wednesday Good
OZONE
Wednesday Good
PM2.5

Snow Depth

Station Depth Elevation
No new snow has been reported.

Earthquake Activity

City Distance Mag. Time & Date
No recent earthquake activity has been reported nearby.
Minimum magnitude displayed is 2.5.

Coastal Water Temperatures

Place Temperature
Mayport (Bar Pilots Dock), FL 77.0 °F
Fernandina Beach, FL 75.9 °F

Nearby Weather Stations